Time;durP1;ratioP1;P1;durP2;ratioP2;P2;SDS_P1;SDS_P2;PMS_P1;PMS_P2;Temp;Humidity;BMP_temperature;BMP_pressure;BME280_temperature;BME280_humidity;BME280_pressure;Samples;Min_cycle;Max_cycle;Signal;HPM_P1;HPM_P2
2023/08/13 00:01:24;;;;;;;12.18;3.60;;;16.40;99.90;;;;;;5096855;28;20085;-77
2023/08/13 00:03:50;;;;;;;18.25;3.75;;;16.40;99.90;;;;;;5090406;28;20119;-78
2023/08/13 00:06:15;;;;;;;16.02;4.13;;;16.30;99.90;;;;;;5116552;28;20050;-78
2023/08/13 00:08:41;;;;;;;15.68;3.60;;;16.30;99.90;;;;;;5114768;28;20079;-78
2023/08/13 00:11:09;;;;;;;13.60;3.15;;;16.30;99.90;;;;;;5122546;28;20043;-78
2023/08/13 00:13:35;;;;;;;12.30;3.55;;;16.30;99.90;;;;;;5103651;28;20047;-77
2023/08/13 00:16:00;;;;;;;13.05;3.28;;;16.30;99.90;;;;;;5117103;28;20036;-77
2023/08/13 00:18:28;;;;;;;13.35;3.67;;;16.30;99.90;;;;;;5099891;28;20087;-78
2023/08/13 00:20:53;;;;;;;16.42;3.55;;;16.30;99.90;;;;;;5104357;28;20104;-78
2023/08/13 00:23:19;;;;;;;16.52;3.30;;;16.30;99.90;;;;;;5124340;28;20063;-77
2023/08/13 00:25:45;;;;;;;9.95;3.25;;;16.30;99.90;;;;;;5105031;28;20044;-77
2023/08/13 00:28:10;;;;;;;9.55;2.67;;;16.30;99.90;;;;;;5099243;28;20040;-77
2023/08/13 00:30:36;;;;;;;16.50;3.72;;;16.30;99.90;;;;;;5077563;28;20462;-77
2023/08/13 00:33:02;;;;;;;15.48;3.95;;;16.20;99.90;;;;;;5094988;28;20060;-77
2023/08/13 00:35:27;;;;;;;12.95;3.50;;;16.20;99.90;;;;;;5078463;28;20105;-78
2023/08/13 00:37:53;;;;;;;15.68;4.32;;;16.20;99.90;;;;;;5095416;28;20063;-77
2023/08/13 00:40:19;;;;;;;17.05;3.50;;;16.20;99.90;;;;;;5097024;28;20040;-77
2023/08/13 00:42:45;;;;;;;15.93;3.60;;;16.10;99.90;;;;;;5097986;28;20063;-77
2023/08/13 00:45:10;;;;;;;12.82;3.20;;;16.10;99.90;;;;;;5096774;28;20040;-78
2023/08/13 00:47:37;;;;;;;12.27;3.67;;;16.10;99.90;;;;;;5099440;28;20055;-78
2023/08/13 00:50:04;;;;;;;11.50;3.33;;;16.10;99.90;;;;;;5094768;28;20539;-78
2023/08/13 00:52:30;;;;;;;15.93;4.05;;;16.10;99.90;;;;;;5097149;28;20066;-78
2023/08/13 00:54:56;;;;;;;15.23;3.63;;;16.10;99.90;;;;;;5096009;28;20039;-78
2023/08/13 00:57:23;;;;;;;18.50;3.40;;;16.00;99.90;;;;;;5108455;28;20130;-77
2023/08/13 00:59:50;;;;;;;10.85;3.30;;;16.00;99.90;;;;;;5115928;28;20122;-78
2023/08/13 01:02:17;;;;;;;16.25;3.15;;;16.10;99.90;;;;;;5116834;28;20431;-78
2023/08/13 01:04:43;;;;;;;14.18;3.38;;;16.00;99.90;;;;;;5115695;28;20474;-77
2023/08/13 01:07:51;;;;;;;14.63;3.50;;;16.00;99.90;;;;;;5116870;28;20051;-78
2023/08/13 01:10:36;;;;;;;13.55;3.78;;;16.00;99.90;;;;;;5115159;28;20061;-78
2023/08/13 01:13:20;;;;;;;16.15;3.63;;;16.00;99.90;;;;;;5095935;28;20097;-77
2023/08/13 01:15:46;;;;;;;12.55;3.75;;;16.00;99.90;;;;;;5094970;28;20651;-77
2023/08/13 01:18:16;;;;;;;14.68;3.20;;;16.00;99.90;;;;;;5079483;28;20474;-77
2023/08/13 01:20:43;;;;;;;16.95;4.05;;;15.90;99.90;;;;;;5097526;28;20401;-78
2023/08/13 01:23:09;;;;;;;9.45;3.38;;;15.90;99.90;;;;;;5096652;28;20131;-78
2023/08/13 01:25:36;;;;;;;13.75;3.28;;;15.90;99.90;;;;;;5116776;28;20071;-78
2023/08/13 01:28:25;;;;;;;14.93;3.53;;;15.90;99.90;;;;;;5116221;28;20093;-77
2023/08/13 01:31:11;;;;;;;13.27;3.13;;;15.90;99.90;;;;;;5098161;28;20067;-78
2023/08/13 01:33:40;;;;;;;17.02;4.03;;;15.90;99.90;;;;;;5115249;28;20168;-77
2023/08/13 01:36:06;;;;;;;13.98;4.07;;;15.90;99.90;;;;;;5117860;28;20040;-77
2023/08/13 01:38:32;;;;;;;12.23;3.83;;;15.90;99.90;;;;;;5117172;28;20064;-77
2023/08/13 01:41:03;;;;;;;15.73;4.03;;;15.90;99.90;;;;;;5117688;28;20050;-78
2023/08/13 01:43:28;;;;;;;19.13;3.63;;;15.90;99.90;;;;;;5093854;28;20394;-79
2023/08/13 01:45:54;;;;;;;16.80;4.45;;;15.90;99.90;;;;;;5095316;28;20048;-78
2023/08/13 01:48:20;;;;;;;15.00;3.50;;;15.90;99.90;;;;;;5095744;28;20131;-78
2023/08/13 01:50:46;;;;;;;12.05;3.28;;;15.90;99.90;;;;;;5098595;28;20489;-77
2023/08/13 01:53:11;;;;;;;21.33;3.72;;;15.90;99.90;;;;;;5096199;28;20036;-77
2023/08/13 01:55:37;;;;;;;13.45;4.15;;;15.90;99.90;;;;;;5097517;28;20450;-78
2023/08/13 01:58:03;;;;;;;17.05;3.97;;;15.90;99.90;;;;;;5095963;28;20040;-78
2023/08/13 02:00:29;;;;;;;14.73;3.58;;;15.80;99.90;;;;;;5095390;28;20109;-77
2023/08/13 02:02:55;;;;;;;17.63;3.92;;;15.90;99.90;;;;;;5095119;28;20040;-76
2023/08/13 02:05:21;;;;;;;16.23;3.80;;;15.90;99.90;;;;;;5095653;28;20048;-77
2023/08/13 02:07:47;;;;;;;15.32;4.13;;;15.90;99.90;;;;;;5094354;28;20375;-78
2023/08/13 02:10:13;;;;;;;10.18;3.35;;;15.90;99.90;;;;;;5109466;28;20036;-78
2023/08/13 02:12:42;;;;;;;22.00;4.53;;;15.80;99.90;;;;;;5097227;28;20088;-78
2023/08/13 02:15:08;;;;;;;15.93;3.85;;;15.80;99.90;;;;;;5095775;28;20036;-77
2023/08/13 02:17:34;;;;;;;15.73;3.75;;;15.80;99.90;;;;;;5096463;28;20028;-78
2023/08/13 02:20:00;;;;;;;16.75;4.25;;;15.80;99.90;;;;;;5096483;28;20044;-77
2023/08/13 02:22:25;;;;;;;14.20;3.80;;;15.90;99.90;;;;;;5094865;28;20058;-78
2023/08/13 02:24:51;;;;;;;18.25;3.53;;;15.90;99.90;;;;;;5095753;28;20109;-77
2023/08/13 02:27:18;;;;;;;14.48;3.78;;;15.80;99.90;;;;;;5094032;28;20539;-77
2023/08/13 02:29:43;;;;;;;19.25;3.85;;;15.80;99.90;;;;;;5093448;28;20048;-77
2023/08/13 02:32:09;;;;;;;13.95;3.25;;;15.80;99.90;;;;;;5092113;28;20048;-77
2023/08/13 02:34:43;;;;;;;18.17;3.92;;;15.80;99.90;;;;;;5092515;28;20043;-76
2023/08/13 02:37:09;;;;;;;16.92;3.83;;;15.80;99.90;;;;;;5076148;28;20444;-78
2023/08/13 02:39:35;;;;;;;16.13;3.92;;;15.80;99.90;;;;;;5092440;28;20040;-78
2023/08/13 02:42:00;;;;;;;21.27;4.45;;;15.80;99.90;;;;;;5094304;28;20044;-78
2023/08/13 02:44:26;;;;;;;19.77;3.80;;;15.80;99.90;;;;;;5095635;28;20040;-78
2023/08/13 02:46:52;;;;;;;17.30;3.28;;;15.80;99.90;;;;;;5094140;28;20082;-78
2023/08/13 02:49:18;;;;;;;15.65;4.00;;;15.80;99.90;;;;;;5095066;28;20055;-78
2023/08/13 02:51:44;;;;;;;13.38;3.67;;;15.80;99.90;;;;;;5092618;28;20044;-78
2023/08/13 02:54:10;;;;;;;18.98;4.45;;;15.80;99.90;;;;;;5089535;28;20494;-78
2023/08/13 02:56:36;;;;;;;22.33;5.03;;;15.70;99.90;;;;;;5097546;28;20051;-78
2023/08/13 02:59:01;;;;;;;11.48;3.45;;;15.80;99.90;;;;;;5115226;28;20039;-79
2023/08/13 03:01:27;;;;;;;21.42;4.43;;;15.80;99.90;;;;;;5112407;28;20537;-78
2023/08/13 03:03:54;;;;;;;13.75;3.97;;;15.80;99.90;;;;;;5098058;28;20051;-78
2023/08/13 03:06:21;;;;;;;14.52;4.03;;;15.70;99.90;;;;;;5099492;28;20048;-78
2023/08/13 03:08:47;;;;;;;14.75;4.05;;;15.80;99.90;;;;;;5097896;28;20398;-78
2023/08/13 03:11:15;;;;;;;19.98;4.70;;;15.80;99.90;;;;;;5099498;28;20270;-78
2023/08/13 03:13:41;;;;;;;16.10;4.30;;;15.70;99.90;;;;;;5099417;28;20086;-78
2023/08/13 03:16:07;;;;;;;20.38;3.97;;;15.70;99.90;;;;;;5099927;28;20071;-78
2023/08/13 03:18:33;;;;;;;17.38;4.00;;;15.70;99.90;;;;;;5099937;28;20424;-78
2023/08/13 03:20:58;;;;;;;16.75;4.18;;;15.70;99.90;;;;;;5107667;28;20040;-78
2023/08/13 03:23:24;;;;;;;22.98;4.93;;;15.70;99.90;;;;;;5120311;28;20052;-79
2023/08/13 03:25:49;;;;;;;15.63;3.40;;;15.60;99.90;;;;;;5119861;28;20055;-77
2023/08/13 03:28:15;;;;;;;19.80;4.50;;;15.70;99.90;;;;;;5118678;28;20514;-77
2023/08/13 03:30:41;;;;;;;14.10;3.10;;;15.70;99.90;;;;;;5118721;28;20043;-77
2023/08/13 03:33:06;;;;;;;15.80;3.88;;;15.70;99.90;;;;;;5120615;28;20043;-77
2023/08/13 03:35:37;;;;;;;16.60;4.20;;;15.70;99.90;;;;;;5122739;28;20055;-77
2023/08/13 03:38:03;;;;;;;28.65;5.03;;;15.70;99.90;;;;;;5110069;28;20036;-77
2023/08/13 03:40:29;;;;;;;18.45;3.97;;;15.60;99.90;;;;;;5105750;28;20058;-77
2023/08/13 03:42:54;;;;;;;24.55;4.57;;;15.60;99.90;;;;;;5108205;28;20040;-77
2023/08/13 03:45:20;;;;;;;15.43;4.47;;;15.70;99.90;;;;;;5108315;28;20040;-78
2023/08/13 03:47:45;;;;;;;18.35;4.50;;;15.70;99.90;;;;;;5109899;28;20119;-78
2023/08/13 03:50:11;;;;;;;18.33;3.97;;;15.60;99.90;;;;;;5108191;28;20412;-78
2023/08/13 03:52:37;;;;;;;12.45;4.05;;;15.60;99.90;;;;;;5102457;28;20044;-78
2023/08/13 03:55:03;;;;;;;20.80;4.50;;;15.60;99.90;;;;;;5110330;28;20163;-78
2023/08/13 03:57:29;;;;;;;15.77;3.90;;;15.60;99.90;;;;;;5109288;28;20051;-78
2023/08/13 03:59:54;;;;;;;15.23;4.28;;;15.60;99.90;;;;;;5105792;28;20032;-78
2023/08/13 04:02:20;;;;;;;19.00;4.05;;;15.60;99.90;;;;;;5102247;28;20062;-77
2023/08/13 04:04:46;;;;;;;18.17;4.35;;;15.60;99.90;;;;;;5104559;28;20048;-77
2023/08/13 04:07:11;;;;;;;15.13;3.95;;;15.60;99.90;;;;;;5101271;28;20036;-78
2023/08/13 04:09:37;;;;;;;19.90;4.38;;;15.60;99.90;;;;;;5101275;28;20040;-77
2023/08/13 04:12:03;;;;;;;21.08;4.75;;;15.60;99.90;;;;;;5080037;28;20043;-77
2023/08/13 04:14:29;;;;;;;19.48;4.00;;;15.60;99.90;;;;;;5098778;28;20051;-77
2023/08/13 04:16:55;;;;;;;17.70;4.50;;;15.70;99.90;;;;;;5097187;28;20040;-77
2023/08/13 04:19:20;;;;;;;20.42;5.20;;;15.60;99.90;;;;;;5097599;28;20040;-79
2023/08/13 04:21:46;;;;;;;13.85;4.45;;;15.70;99.90;;;;;;5094896;28;20090;-78
2023/08/13 04:24:11;;;;;;;21.88;5.40;;;15.60;99.90;;;;;;5095076;28;20059;-77
2023/08/13 04:26:37;;;;;;;22.52;4.53;;;15.70;99.90;;;;;;5106461;28;20051;-79
2023/08/13 04:29:03;;;;;;;18.67;4.45;;;15.70;99.90;;;;;;5117311;28;20080;-78
2023/08/13 04:31:28;;;;;;;28.80;4.47;;;15.80;99.90;;;;;;5097880;27;20036;-77
2023/08/13 04:33:54;;;;;;;18.80;4.65;;;15.80;99.90;;;;;;5094224;28;20047;-77
2023/08/13 04:36:20;;;;;;;19.15;4.40;;;15.80;99.90;;;;;;5095444;28;20036;-78
2023/08/13 04:38:45;;;;;;;25.77;4.55;;;15.90;99.90;;;;;;5096407;28;20043;-77
2023/08/13 04:41:11;;;;;;;20.30;4.70;;;15.90;99.90;;;;;;5098233;28;20043;-78
2023/08/13 04:43:37;;;;;;;15.77;3.83;;;15.90;99.90;;;;;;5105448;28;20477;-78
2023/08/13 04:46:02;;;;;;;14.88;4.43;;;15.90;99.90;;;;;;5117289;28;20032;-77
2023/08/13 04:48:45;;;;;;;14.70;4.13;;;15.90;99.90;;;;;;5116780;28;20113;-78
2023/08/13 04:51:12;;;;;;;19.63;4.60;;;16.00;99.90;;;;;;5119405;28;20079;-77
2023/08/13 04:53:38;;;;;;;21.05;5.00;;;16.00;99.90;;;;;;5104496;28;20417;-79
2023/08/13 04:56:06;;;;;;;17.73;4.60;;;16.00;99.90;;;;;;5099473;28;20044;-79
2023/08/13 04:58:31;;;;;;;;;;;16.10;99.90;;;;;;5115198;28;20047;-77
2023/08/13 05:00:57;;;;;;;19.17;4.35;;;16.10;99.90;;;;;;5113960;28;19923;-77
2023/08/13 05:03:23;;;;;;;14.95;4.40;;;16.10;99.90;;;;;;5116091;28;20046;-78
2023/08/13 05:05:48;;;;;;;16.60;4.10;;;16.10;99.90;;;;;;5114240;28;20059;-77
2023/08/13 05:08:14;;;;;;;17.35;4.35;;;16.20;99.90;;;;;;5103951;28;20047;-77
2023/08/13 05:10:40;;;;;;;16.30;3.83;;;16.20;99.90;;;;;;5096923;28;20044;-79
2023/08/13 05:13:06;;;;;;;12.68;3.92;;;16.20;99.90;;;;;;5094931;28;20048;-77
2023/08/13 05:15:31;;;;;;;17.67;4.00;;;16.20;99.90;;;;;;5100476;28;20047;-78
2023/08/13 05:17:57;;;;;;;12.40;3.90;;;16.20;99.90;;;;;;5105711;28;20043;-78
2023/08/13 05:20:24;;;;;;;15.32;4.47;;;16.30;99.90;;;;;;5116632;28;20043;-79
2023/08/13 05:22:49;;;;;;;19.27;4.32;;;16.40;99.90;;;;;;5110969;28;20123;-78
2023/08/13 05:25:16;;;;;;;21.52;4.38;;;16.40;99.90;;;;;;5099053;28;20129;-79
2023/08/13 05:27:42;;;;;;;21.25;4.22;;;16.40;99.90;;;;;;5100458;28;20044;-78
2023/08/13 05:30:08;;;;;;;17.95;4.35;;;16.40;99.90;;;;;;5098382;28;20397;-78
2023/08/13 05:32:34;;;;;;;15.57;3.78;;;16.50;99.90;;;;;;5093787;28;20047;-78
2023/08/13 05:34:59;;;;;;;18.45;4.57;;;16.50;99.90;;;;;;5096156;28;20036;-77
2023/08/13 05:37:25;;;;;;;28.23;4.90;;;16.50;99.90;;;;;;5094031;28;20119;-77
2023/08/13 05:39:51;;;;;;;14.95;3.83;;;16.50;99.90;;;;;;5096738;28;20043;-77
2023/08/13 05:42:17;;;;;;;14.82;4.30;;;16.50;99.90;;;;;;5096083;28;20036;-78
2023/08/13 05:44:42;;;;;;;15.55;3.80;;;16.50;99.90;;;;;;5098176;28;20036;-79
2023/08/13 05:47:08;;;;;;;21.85;5.15;;;16.60;99.90;;;;;;5097187;28;20102;-79
2023/08/13 05:49:34;;;;;;;16.10;3.97;;;16.60;99.90;;;;;;5100686;28;20051;-78
2023/08/13 05:52:02;;;;;;;17.65;4.28;;;16.60;99.90;;;;;;5098357;28;20036;-78
2023/08/13 05:54:28;;;;;;;17.85;4.20;;;16.50;99.90;;;;;;5099804;28;20044;-79
2023/08/13 05:56:54;;;;;;;20.50;4.60;;;16.60;99.90;;;;;;5101084;28;20040;-79
2023/08/13 05:59:20;;;;;;;12.95;4.05;;;16.60;99.90;;;;;;5099580;28;20040;-78
2023/08/13 06:01:46;;;;;;;13.38;4.63;;;16.60;99.90;;;;;;5099118;28;20421;-80
2023/08/13 06:04:11;;;;;;;15.20;3.90;;;16.70;99.90;;;;;;5101151;28;20080;-79
2023/08/13 06:06:38;;;;;;;15.35;4.18;;;16.70;99.90;;;;;;5103663;28;20047;-79
2023/08/13 06:09:05;;;;;;;23.40;4.75;;;16.70;99.90;;;;;;5099220;28;20046;-77
2023/08/13 06:11:31;;;;;;;17.38;4.68;;;16.70;99.90;;;;;;5100549;28;20045;-80
2023/08/13 06:13:57;;;;;;;17.55;4.10;;;16.70;99.90;;;;;;5102153;28;20081;-79
2023/08/13 06:16:22;;;;;;;20.23;4.68;;;16.70;99.90;;;;;;5096693;28;20042;-78
2023/08/13 06:18:48;;;;;;;16.00;4.18;;;16.70;99.90;;;;;;5095869;28;20085;-77
2023/08/13 06:21:14;;;;;;;18.63;4.72;;;16.70;99.90;;;;;;5093726;28;20055;-77
2023/08/13 06:23:39;;;;;;;17.10;4.13;;;16.60;99.90;;;;;;5077777;28;20046;-79
2023/08/13 06:26:06;;;;;;;21.23;4.25;;;16.60;99.90;;;;;;5093607;28;20046;-78
2023/08/13 06:28:33;;;;;;;16.55;4.22;;;16.60;99.90;;;;;;5096753;28;20040;-78
2023/08/13 06:31:00;;;;;;;18.63;4.85;;;16.70;99.90;;;;;;5102400;28;20069;-79
2023/08/13 06:33:26;;;;;;;20.33;4.03;;;17.00;99.90;;;;;;5084002;28;20071;-79
2023/08/13 06:35:51;;;;;;;16.40;4.63;;;17.40;99.90;;;;;;5098858;28;20044;-78
2023/08/13 06:38:17;;;;;;;18.00;4.25;;;17.90;99.90;;;;;;5103707;28;20047;-79
2023/08/13 06:40:44;;;;;;;18.13;4.72;;;18.50;99.90;;;;;;5107860;28;20101;-79
2023/08/13 06:43:11;;;;;;;9.83;3.53;;;19.00;99.90;;;;;;5101125;28;20124;-78
2023/08/13 06:45:36;;;;;;;15.68;3.85;;;19.50;99.90;;;;;;5104857;28;20496;-80
2023/08/13 06:48:04;;;;;;;12.05;4.18;;;20.00;99.90;;;;;;5103908;28;20044;-79
2023/08/13 06:50:31;;;;;;;15.70;4.15;;;20.20;99.90;;;;;;5103308;28;20048;-78
2023/08/13 06:52:57;;;;;;;13.38;3.85;;;20.30;99.90;;;;;;5102036;28;20051;-79
2023/08/13 06:55:23;;;;;;;11.88;3.50;;;20.10;99.90;;;;;;5101504;28;20044;-78
2023/08/13 06:57:48;;;;;;;15.43;4.10;;;19.90;99.90;;;;;;5100384;28;20036;-78
2023/08/13 07:00:19;;;;;;;12.23;3.95;;;19.60;99.90;;;;;;5104831;28;20036;-79
2023/08/13 07:02:50;;;;;;;19.90;4.72;;;19.30;99.90;;;;;;5106854;28;20052;-79
2023/08/13 07:05:17;;;;;;;14.13;3.65;;;19.10;99.90;;;;;;5103375;28;20055;-79
2023/08/13 07:07:42;;;;;;;13.98;4.40;;;19.10;99.90;;;;;;5105693;28;20056;-79
2023/08/13 07:10:10;;;;;;;11.73;3.50;;;19.00;99.90;;;;;;5113250;28;20056;-79
2023/08/13 07:12:35;;;;;;;15.63;4.88;;;19.00;99.90;;;;;;5109857;28;20040;-78
2023/08/13 07:15:03;;;;;;;17.50;4.50;;;19.20;99.90;;;;;;5091054;28;20051;-79
2023/08/13 07:17:30;;;;;;;15.98;4.00;;;19.30;99.90;;;;;;5102021;28;20044;-78
2023/08/13 07:19:56;;;;;;;12.18;3.70;;;19.40;99.90;;;;;;5103794;28;20040;-78
2023/08/13 07:22:21;;;;;;;17.58;3.70;;;19.40;99.90;;;;;;5103687;28;20464;-79
2023/08/13 07:24:47;;;;;;;20.90;4.32;;;19.60;99.90;;;;;;5104752;28;20044;-78
2023/08/13 07:27:13;;;;;;;15.23;4.00;;;19.60;99.90;;;;;;5108258;28;20059;-78
2023/08/13 07:29:39;;;;;;;11.77;3.33;;;19.70;99.90;;;;;;5108615;28;20036;-79
2023/08/13 07:32:05;;;;;;;16.20;3.67;;;19.80;99.90;;;;;;5112512;28;20100;-79
2023/08/13 07:34:31;;;;;;;14.10;3.63;;;19.90;99.90;;;;;;5106762;28;20039;-78
2023/08/13 07:36:56;;;;;;;12.32;3.35;;;19.90;99.90;;;;;;5102774;28;20044;-78
2023/08/13 07:39:23;;;;;;;15.10;3.10;;;19.90;99.90;;;;;;5102043;28;20032;-78
2023/08/13 07:41:49;;;;;;;11.77;3.20;;;20.00;99.90;;;;;;5086209;28;20083;-78
2023/08/13 07:44:18;;;;;;;13.50;3.50;;;20.10;99.90;;;;;;5103552;28;20036;-79
2023/08/13 07:46:43;;;;;;;12.07;3.83;;;20.30;99.90;;;;;;5086000;28;20123;-79
2023/08/13 07:49:09;;;;;;;14.18;3.95;;;20.20;99.90;;;;;;5105956;28;20040;-79
2023/08/13 07:51:35;;;;;;;14.18;3.67;;;20.20;99.90;;;;;;5107063;28;20039;-80
2023/08/13 07:54:00;;;;;;;11.65;3.50;;;20.30;99.90;;;;;;5108209;28;20047;-80
2023/08/13 07:56:26;;;;;;;16.27;4.20;;;20.30;99.90;;;;;;5124048;28;20149;-79
2023/08/13 07:58:51;;;;;;;12.65;3.80;;;20.30;99.90;;;;;;5126773;28;20032;-78
2023/08/13 08:01:17;;;;;;;15.02;4.15;;;20.30;99.90;;;;;;5123973;28;20393;-80
2023/08/13 08:03:44;;;;;;;16.70;4.13;;;20.20;99.90;;;;;;5126481;28;20423;-79
2023/08/13 08:06:14;;;;;;;14.10;3.63;;;20.10;99.90;;;;;;5107769;28;20051;-80
2023/08/13 08:08:40;;;;;;;13.13;3.47;;;20.20;99.90;;;;;;5107347;28;20293;-79
2023/08/13 08:11:06;;;;;;;12.45;3.60;;;20.30;99.90;;;;;;5123624;28;20047;-80
2023/08/13 08:13:32;;;;;;;12.98;4.03;;;20.40;99.90;;;;;;5106694;28;20111;-80
2023/08/13 08:15:58;;;;;;;12.82;3.53;;;20.60;99.90;;;;;;5105911;28;20398;-79
2023/08/13 08:18:23;;;;;;;14.90;3.03;;;20.70;99.90;;;;;;5106243;28;20048;-79
2023/08/13 08:20:49;;;;;;;13.98;3.50;;;20.70;99.90;;;;;;5120919;28;20504;-80
2023/08/13 08:23:15;;;;;;;9.80;3.50;;;20.50;99.90;;;;;;5125342;28;20105;-79
2023/08/13 08:25:40;;;;;;;14.30;3.25;;;20.40;99.90;;;;;;5120835;28;20050;-80
2023/08/13 08:28:06;;;;;;;16.45;3.63;;;20.30;99.90;;;;;;5122206;28;20043;-80
2023/08/13 08:30:32;;;;;;;15.55;4.70;;;20.40;99.90;;;;;;5122832;28;20050;-79
2023/08/13 08:32:57;;;;;;;12.95;3.40;;;20.40;99.90;;;;;;5129303;28;20078;-79
2023/08/13 08:35:23;;;;;;;9.38;2.95;;;20.50;99.90;;;;;;5128308;28;20047;-79
2023/08/13 08:37:49;;;;;;;9.73;3.35;;;20.60;99.90;;;;;;5122692;28;20047;-79
2023/08/13 08:40:14;;;;;;;11.15;3.35;;;20.60;99.90;;;;;;5109443;28;20086;-79
2023/08/13 08:42:42;;;;;;;11.65;3.45;;;20.70;99.90;;;;;;5126534;28;20044;-78
2023/08/13 08:45:10;;;;;;;13.50;3.15;;;20.70;99.90;;;;;;5109111;28;20127;-80
2023/08/13 08:47:41;;;;;;;10.95;3.00;;;20.80;99.90;;;;;;5110709;28;20044;-81
2023/08/13 08:50:12;;;;;;;10.32;2.85;;;20.70;99.90;;;;;;5109033;28;20075;-81
2023/08/13 08:52:39;;;;;;;12.43;3.22;;;20.90;99.90;;;;;;5106736;28;20128;-80
2023/08/13 08:55:05;;;;;;;12.23;2.95;;;21.00;99.90;;;;;;5106495;28;20044;-80
2023/08/13 08:57:30;;;;;;;13.38;3.00;;;21.00;99.90;;;;;;5108616;28;20063;-79
2023/08/13 08:59:56;;;;;;;10.80;3.05;;;20.90;99.90;;;;;;5105020;28;20074;-79
2023/08/13 09:02:22;;;;;;;12.15;2.63;;;20.90;99.90;;;;;;5105784;28;20066;-82
2023/08/13 09:04:48;;;;;;;11.35;3.45;;;20.90;99.90;;;;;;5106227;28;20437;-80
2023/08/13 09:07:14;;;;;;;13.57;2.45;;;20.90;99.90;;;;;;5108072;28;20036;-80
2023/08/13 09:09:43;;;;;;;8.80;2.97;;;21.00;99.90;;;;;;5107152;28;20516;-79
2023/08/13 09:12:09;;;;;;;11.27;3.17;;;21.00;99.90;;;;;;5103426;28;20062;-79
2023/08/13 09:14:35;;;;;;;14.50;2.83;;;21.00;99.90;;;;;;5106077;28;20048;-82
2023/08/13 09:17:01;;;;;;;12.50;2.53;;;21.10;99.90;;;;;;5105429;28;20104;-80
2023/08/13 09:19:28;;;;;;;8.43;2.38;;;21.40;99.90;;;;;;5105020;28;20052;-80
2023/08/13 09:21:56;;;;;;;7.57;2.33;;;21.60;99.90;;;;;;5124469;28;20114;-80
2023/08/13 09:24:35;;;;;;;9.80;2.20;;;21.80;99.90;;;;;;5127667;28;20056;-79
2023/08/13 09:27:02;;;;;;;7.72;2.20;;;22.10;99.90;;;;;;5111968;28;20044;-80
2023/08/13 09:29:32;;;;;;;6.70;2.38;;;22.10;99.90;;;;;;5104543;28;20050;-79
2023/08/13 09:31:59;;;;;;;10.95;2.63;;;22.10;99.90;;;;;;5102048;28;20111;-79
2023/08/13 09:34:26;;;;;;;6.78;2.10;;;22.30;99.90;;;;;;5105809;28;20046;-80
2023/08/13 09:36:53;;;;;;;8.77;2.58;;;22.20;99.90;;;;;;5105356;28;20040;-81
2023/08/13 09:39:18;;;;;;;6.60;2.55;;;22.30;99.90;;;;;;5106914;28;20121;-81
2023/08/13 09:41:47;;;;;;;9.77;2.42;;;22.50;99.90;;;;;;5121510;28;20051;-79
2023/08/13 09:44:15;;;;;;;10.32;2.20;;;22.70;99.90;;;;;;5125441;28;20047;-80
2023/08/13 09:46:43;;;;;;;11.38;2.72;;;22.90;99.90;;;;;;5110215;28;20477;-80
2023/08/13 09:49:11;;;;;;;12.68;2.78;;;23.00;99.90;;;;;;5119958;28;20048;-80
2023/08/13 09:51:39;;;;;;;12.50;3.10;;;23.10;99.90;;;;;;5113271;28;20103;-81
2023/08/13 09:54:13;;;;;;;10.38;2.17;;;23.20;99.90;;;;;;5125303;28;20119;-80
2023/08/13 09:56:45;;;;;;;8.95;2.40;;;23.30;99.90;;;;;;5111630;28;20031;-79
2023/08/13 09:59:11;;;;;;;8.65;2.80;;;23.40;99.90;;;;;;5107274;28;20538;-78
2023/08/13 10:01:38;;;;;;;8.45;2.20;;;23.40;99.90;;;;;;5107056;28;20382;-80
2023/08/13 10:04:05;;;;;;;8.27;2.58;;;23.20;99.90;;;;;;5111830;28;20048;-80
2023/08/13 10:06:32;;;;;;;10.53;2.30;;;23.20;99.90;;;;;;5111389;28;20151;-79
2023/08/13 10:08:58;;;;;;;10.93;3.08;;;23.20;99.90;;;;;;5108869;28;20043;-78
2023/08/13 10:11:24;;;;;;;8.40;2.28;;;23.00;99.90;;;;;;5104857;28;20044;-78
2023/08/13 10:13:50;;;;;;;7.45;1.92;;;22.90;99.90;;;;;;5106555;28;20423;-79
2023/08/13 10:16:16;;;;;;;6.13;1.67;;;22.80;99.90;;;;;;5109028;28;20048;-79
2023/08/13 10:18:46;;;;;;;7.43;2.22;;;22.80;99.90;;;;;;5108417;28;20093;-80
2023/08/13 10:21:14;;;;;;;8.05;2.10;;;22.80;99.90;;;;;;5109137;28;20036;-80
2023/08/13 10:23:41;;;;;;;8.75;2.50;;;23.00;99.90;;;;;;5090196;28;20048;-79
2023/08/13 10:26:07;;;;;;;8.55;2.47;;;23.10;99.90;;;;;;5104493;28;20129;-81
2023/08/13 10:28:34;;;;;;;7.65;1.85;;;23.20;99.90;;;;;;5099301;28;20044;-79
2023/08/13 10:31:20;;;;;;;5.85;2.13;;;23.40;99.90;;;;;;5081675;28;20474;-79
2023/08/13 10:33:45;;;;;;;7.45;1.73;;;23.60;99.90;;;;;;5099929;28;20057;-80
2023/08/13 10:36:11;;;;;;;8.30;2.42;;;23.80;99.90;;;;;;5102853;28;20078;-80
2023/08/13 10:38:38;;;;;;;6.35;1.88;;;23.70;99.90;;;;;;5116500;28;20043;-78
2023/08/13 10:41:06;;;;;;;8.87;2.17;;;23.60;99.90;;;;;;5119139;28;20047;-78
2023/08/13 10:43:34;;;;;;;7.80;2.15;;;23.60;99.90;;;;;;5118401;28;20401;-79
2023/08/13 10:46:04;;;;;;;9.20;2.05;;;23.60;99.90;;;;;;5101220;28;20040;-79
2023/08/13 10:48:30;;;;;;;7.45;1.98;;;23.60;99.90;;;;;;5099040;28;20065;-79
2023/08/13 10:50:57;;;;;;;9.10;2.35;;;23.40;99.90;;;;;;5103467;28;20043;-80
2023/08/13 10:53:26;;;;;;;7.10;1.85;;;23.20;99.90;;;;;;5102008;28;20044;-80
2023/08/13 10:55:54;;;;;;;8.07;1.95;;;23.10;99.90;;;;;;5124464;28;20397;-80
2023/08/13 10:58:30;;;;;;;6.93;2.00;;;23.30;99.90;;;;;;5123510;28;20118;-81
2023/08/13 11:01:19;;;;;;;7.43;1.95;;;23.70;99.90;;;;;;5109538;28;20120;-80
2023/08/13 11:03:56;;;;;;;5.85;1.75;;;23.90;99.90;;;;;;5103688;28;20051;-80
2023/08/13 11:06:24;;;;;;;7.78;2.33;;;24.10;99.90;;;;;;5104602;28;20055;-81
2023/08/13 11:08:50;;;;;;;7.03;2.15;;;24.40;99.90;;;;;;5104144;28;20401;-81
2023/08/13 11:11:19;;;;;;;7.93;1.85;;;24.50;99.90;;;;;;5104279;28;20040;-81
2023/08/13 11:13:46;;;;;;;6.18;2.10;;;24.40;99.90;;;;;;5105002;28;20044;-80
2023/08/13 11:16:13;;;;;;;;;;;24.10;99.90;;;;;;5107987;28;20051;-80
2023/08/13 11:18:39;;;;;;;6.28;2.00;;;24.00;99.90;;;;;;5107759;28;19920;-80
2023/08/13 11:21:05;;;;;;;5.80;1.90;;;23.70;99.90;;;;;;5105467;28;20055;-81
2023/08/13 11:23:32;;;;;;;6.37;2.27;;;23.70;99.90;;;;;;5108944;28;20076;-79
2023/08/13 11:25:58;;;;;;;7.05;2.25;;;23.70;99.90;;;;;;5093922;28;20073;-80
2023/08/13 11:28:28;;;;;;;8.30;2.13;;;23.90;99.90;;;;;;5131895;28;20048;-80
2023/08/13 11:30:56;;;;;;;9.07;1.80;;;24.20;99.90;;;;;;5129128;28;20048;-79
2023/08/13 11:33:23;;;;;;;7.55;2.03;;;24.30;99.90;;;;;;5127335;28;20047;-79
2023/08/13 11:35:50;;;;;;;11.85;2.55;;;24.30;99.90;;;;;;5127307;28;20047;-80
2023/08/13 11:38:17;;;;;;;8.50;2.35;;;24.20;99.90;;;;;;5125928;28;20058;-81
2023/08/13 11:40:42;;;;;;;7.35;1.83;;;24.00;99.90;;;;;;5124014;28;20441;-79
2023/08/13 11:43:13;;;;;;;7.97;2.20;;;23.90;99.90;;;;;;5110073;28;20050;-81
2023/08/13 11:45:39;;;;;;;9.65;2.28;;;23.90;99.90;;;;;;5126933;28;20110;-78
2023/08/13 11:48:11;;;;;;;6.20;2.10;;;23.70;99.90;;;;;;5107809;28;20490;-80
2023/08/13 11:50:37;;;;;;;5.85;2.10;;;23.60;99.90;;;;;;5104720;28;20043;-81
2023/08/13 11:53:05;;;;;;;8.77;2.55;;;23.40;99.90;;;;;;5107045;28;20119;-83
2023/08/13 11:55:32;;;;;;;7.80;1.83;;;23.30;99.90;;;;;;5104641;28;20055;-80
2023/08/13 11:57:58;;;;;;;5.63;2.10;;;23.20;99.90;;;;;;5106441;28;20044;-79
2023/08/13 12:00:28;;;;;;;6.97;2.03;;;23.10;99.90;;;;;;5106234;28;20109;-79
2023/08/13 12:02:57;;;;;;;5.15;1.83;;;23.00;99.90;;;;;;5105494;28;20040;-81
2023/08/13 12:05:29;;;;;;;7.40;2.00;;;23.00;99.90;;;;;;5110757;28;20095;-81
2023/08/13 12:08:02;;;;;;;11.60;2.25;;;23.10;99.90;;;;;;5127657;28;20067;-80
2023/08/13 12:10:28;;;;;;;6.18;2.08;;;23.10;99.90;;;;;;5093334;28;20047;-80
2023/08/13 12:12:53;;;;;;;5.28;1.70;;;23.20;99.90;;;;;;5093576;28;20044;-79
2023/08/13 12:15:24;;;;;;;6.18;2.10;;;23.30;99.90;;;;;;5105182;28;20395;-77
2023/08/13 12:17:53;;;;;;;5.63;1.60;;;23.20;99.90;;;;;;5103664;28;20501;-79
2023/08/13 12:20:19;;;;;;;14.27;3.03;;;23.20;99.90;;;;;;5104403;28;20040;-79
2023/08/13 12:22:45;;;;;;;8.65;2.00;;;23.20;99.90;;;;;;5103708;28;20535;-79
2023/08/13 12:25:11;;;;;;;4.75;1.77;;;23.20;99.90;;;;;;5104308;28;20080;-81
2023/08/13 12:27:36;;;;;;;6.85;2.60;;;23.10;99.90;;;;;;5125283;28;20135;-78
2023/08/13 12:30:03;;;;;;;7.30;1.77;;;22.90;99.90;;;;;;5125634;28;20044;-80
2023/08/13 12:32:30;;;;;;;6.63;2.08;;;22.80;99.90;;;;;;5126369;28;20042;-80
2023/08/13 12:34:56;;;;;;;10.45;2.00;;;22.70;99.90;;;;;;5127158;28;20095;-80
2023/08/13 12:37:21;;;;;;;4.50;1.33;;;22.60;99.90;;;;;;5123063;28;20071;-82
2023/08/13 12:39:48;;;;;;;4.38;1.58;;;22.60;99.90;;;;;;5110543;28;20126;-80